sensor_id;sensor_type;location;lat;lon;timestamp;P1;durP1;ratioP1;P2;durP2;ratioP2
12332;SDS011;6232;48.094;11.288;2023-06-04T00:00:56;12.00;;;9.50;;
12332;SDS011;6232;48.094;11.288;2023-06-04T00:03:43;12.97;;;8.90;;
12332;SDS011;6232;48.094;11.288;2023-06-04T00:06:29;12.90;;;9.23;;
12332;SDS011;6232;48.094;11.288;2023-06-04T00:09:14;13.63;;;9.03;;
12332;SDS011;6232;48.094;11.288;2023-06-04T00:12:01;12.73;;;9.47;;
12332;SDS011;6232;48.094;11.288;2023-06-04T00:14:46;14.03;;;9.23;;
12332;SDS011;6232;48.094;11.288;2023-06-04T00:17:32;10.50;;;8.27;;
12332;SDS011;6232;48.094;11.288;2023-06-04T00:20:18;13.90;;;8.73;;
12332;SDS011;6232;48.094;11.288;2023-06-04T00:23:03;12.43;;;8.00;;
12332;SDS011;6232;48.094;11.288;2023-06-04T00:25:49;13.30;;;9.07;;
12332;SDS011;6232;48.094;11.288;2023-06-04T00:28:35;11.20;;;8.40;;
12332;SDS011;6232;48.094;11.288;2023-06-04T00:31:20;10.17;;;8.23;;
12332;SDS011;6232;48.094;11.288;2023-06-04T00:34:06;12.53;;;8.40;;
12332;SDS011;6232;48.094;11.288;2023-06-04T00:36:52;13.43;;;8.23;;
12332;SDS011;6232;48.094;11.288;2023-06-04T00:39:37;11.20;;;8.67;;
12332;SDS011;6232;48.094;11.288;2023-06-04T00:42:23;10.03;;;8.20;;
12332;SDS011;6232;48.094;11.288;2023-06-04T00:45:09;9.97;;;8.37;;
12332;SDS011;6232;48.094;11.288;2023-06-04T00:47:55;11.30;;;9.30;;
12332;SDS011;6232;48.094;11.288;2023-06-04T00:50:41;12.77;;;9.77;;
12332;SDS011;6232;48.094;11.288;2023-06-04T00:53:26;11.50;;;8.97;;
12332;SDS011;6232;48.094;11.288;2023-06-04T00:56:12;12.50;;;8.83;;
12332;SDS011;6232;48.094;11.288;2023-06-04T00:58:58;11.83;;;8.70;;
12332;SDS011;6232;48.094;11.288;2023-06-04T01:04:32;12.40;;;8.57;;
12332;SDS011;6232;48.094;11.288;2023-06-04T01:07:19;12.73;;;9.33;;
12332;SDS011;6232;48.094;11.288;2023-06-04T01:10:05;9.50;;;7.90;;
12332;SDS011;6232;48.094;11.288;2023-06-04T01:12:51;14.57;;;9.87;;
12332;SDS011;6232;48.094;11.288;2023-06-04T01:15:37;9.97;;;8.13;;
12332;SDS011;6232;48.094;11.288;2023-06-04T01:18:23;22.23;;;8.20;;
12332;SDS011;6232;48.094;11.288;2023-06-04T01:21:14;10.67;;;8.50;;
12332;SDS011;6232;48.094;11.288;2023-06-04T01:24:06;12.57;;;9.53;;
12332;SDS011;6232;48.094;11.288;2023-06-04T01:26:53;10.90;;;9.27;;
12332;SDS011;6232;48.094;11.288;2023-06-04T01:29:41;10.73;;;8.53;;
12332;SDS011;6232;48.094;11.288;2023-06-04T01:32:27;12.37;;;8.77;;
12332;SDS011;6232;48.094;11.288;2023-06-04T01:35:13;14.07;;;9.90;;
12332;SDS011;6232;48.094;11.288;2023-06-04T01:37:59;13.30;;;9.10;;
12332;SDS011;6232;48.094;11.288;2023-06-04T01:40:45;11.50;;;9.23;;
12332;SDS011;6232;48.094;11.288;2023-06-04T01:43:30;12.63;;;8.90;;
12332;SDS011;6232;48.094;11.288;2023-06-04T01:46:20;9.93;;;8.93;;
12332;SDS011;6232;48.094;11.288;2023-06-04T01:49:05;13.37;;;9.67;;
12332;SDS011;6232;48.094;11.288;2023-06-04T01:51:51;13.43;;;10.10;;
12332;SDS011;6232;48.094;11.288;2023-06-04T01:54:37;10.73;;;9.30;;
12332;SDS011;6232;48.094;11.288;2023-06-04T01:57:23;13.10;;;8.20;;
12332;SDS011;6232;48.094;11.288;2023-06-04T02:00:09;11.63;;;9.30;;
12332;SDS011;6232;48.094;11.288;2023-06-04T02:02:55;10.93;;;8.97;;
12332;SDS011;6232;48.094;11.288;2023-06-04T02:05:41;13.23;;;10.10;;
12332;SDS011;6232;48.094;11.288;2023-06-04T02:08:29;13.10;;;9.27;;
12332;SDS011;6232;48.094;11.288;2023-06-04T02:11:15;16.47;;;9.27;;
12332;SDS011;6232;48.094;11.288;2023-06-04T02:14:01;14.13;;;8.73;;
12332;SDS011;6232;48.094;11.288;2023-06-04T02:16:46;12.20;;;8.67;;
12332;SDS011;6232;48.094;11.288;2023-06-04T02:19:35;11.07;;;9.10;;
12332;SDS011;6232;48.094;11.288;2023-06-04T02:22:22;10.23;;;9.23;;
12332;SDS011;6232;48.094;11.288;2023-06-04T02:25:07;11.00;;;8.73;;
12332;SDS011;6232;48.094;11.288;2023-06-04T02:27:54;9.00;;;8.10;;
12332;SDS011;6232;48.094;11.288;2023-06-04T02:30:40;12.10;;;9.10;;
12332;SDS011;6232;48.094;11.288;2023-06-04T02:33:25;12.80;;;8.43;;
12332;SDS011;6232;48.094;11.288;2023-06-04T02:36:11;15.80;;;9.17;;
12332;SDS011;6232;48.094;11.288;2023-06-04T02:38:57;18.33;;;8.50;;
12332;SDS011;6232;48.094;11.288;2023-06-04T02:41:43;11.80;;;9.47;;
12332;SDS011;6232;48.094;11.288;2023-06-04T02:44:28;18.13;;;9.80;;
12332;SDS011;6232;48.094;11.288;2023-06-04T02:47:15;10.27;;;7.90;;
12332;SDS011;6232;48.094;11.288;2023-06-04T02:50:01;17.07;;;8.90;;
12332;SDS011;6232;48.094;11.288;2023-06-04T02:52:48;12.43;;;9.17;;
12332;SDS011;6232;48.094;11.288;2023-06-04T02:55:34;12.40;;;8.80;;
12332;SDS011;6232;48.094;11.288;2023-06-04T02:58:21;14.73;;;9.57;;
12332;SDS011;6232;48.094;11.288;2023-06-04T03:01:16;10.47;;;8.20;;
12332;SDS011;6232;48.094;11.288;2023-06-04T03:04:02;11.97;;;8.73;;
12332;SDS011;6232;48.094;11.288;2023-06-04T03:06:55;12.23;;;7.77;;
12332;SDS011;6232;48.094;11.288;2023-06-04T03:09:43;11.13;;;9.23;;
12332;SDS011;6232;48.094;11.288;2023-06-04T03:12:28;11.67;;;8.57;;
12332;SDS011;6232;48.094;11.288;2023-06-04T03:15:14;9.80;;;8.47;;
12332;SDS011;6232;48.094;11.288;2023-06-04T03:17:59;10.87;;;9.70;;
12332;SDS011;6232;48.094;11.288;2023-06-04T03:20:45;10.73;;;8.47;;
12332;SDS011;6232;48.094;11.288;2023-06-04T03:23:31;10.93;;;8.10;;
12332;SDS011;6232;48.094;11.288;2023-06-04T03:26:16;12.07;;;9.17;;
12332;SDS011;6232;48.094;11.288;2023-06-04T03:29:02;11.10;;;9.20;;
12332;SDS011;6232;48.094;11.288;2023-06-04T03:31:47;9.93;;;8.70;;
12332;SDS011;6232;48.094;11.288;2023-06-04T03:34:33;10.40;;;8.97;;
12332;SDS011;6232;48.094;11.288;2023-06-04T03:37:18;15.27;;;8.00;;
12332;SDS011;6232;48.094;11.288;2023-06-04T03:40:04;14.33;;;9.43;;
12332;SDS011;6232;48.094;11.288;2023-06-04T03:42:51;11.60;;;9.70;;
12332;SDS011;6232;48.094;11.288;2023-06-04T03:45:37;15.20;;;10.60;;
12332;SDS011;6232;48.094;11.288;2023-06-04T03:48:22;10.47;;;9.00;;
12332;SDS011;6232;48.094;11.288;2023-06-04T03:51:08;12.63;;;8.80;;
12332;SDS011;6232;48.094;11.288;2023-06-04T03:53:53;14.83;;;9.10;;
12332;SDS011;6232;48.094;11.288;2023-06-04T03:56:39;13.47;;;9.07;;
12332;SDS011;6232;48.094;11.288;2023-06-04T03:59:24;14.30;;;9.40;;
12332;SDS011;6232;48.094;11.288;2023-06-04T04:02:10;17.43;;;9.87;;
12332;SDS011;6232;48.094;11.288;2023-06-04T04:04:55;13.13;;;9.80;;
12332;SDS011;6232;48.094;11.288;2023-06-04T04:07:42;15.30;;;10.40;;
12332;SDS011;6232;48.094;11.288;2023-06-04T04:10:28;19.20;;;9.87;;
12332;SDS011;6232;48.094;11.288;2023-06-04T04:13:13;14.33;;;10.80;;
12332;SDS011;6232;48.094;11.288;2023-06-04T04:15:59;14.57;;;10.07;;
12332;SDS011;6232;48.094;11.288;2023-06-04T04:18:45;12.50;;;10.17;;
12332;SDS011;6232;48.094;11.288;2023-06-04T04:21:30;12.27;;;9.50;;
12332;SDS011;6232;48.094;11.288;2023-06-04T04:24:25;13.63;;;9.03;;
12332;SDS011;6232;48.094;11.288;2023-06-04T04:27:12;11.40;;;9.10;;
12332;SDS011;6232;48.094;11.288;2023-06-04T04:29:57;15.07;;;10.10;;
12332;SDS011;6232;48.094;11.288;2023-06-04T04:32:45;10.70;;;9.60;;
12332;SDS011;6232;48.094;11.288;2023-06-04T04:35:33;11.70;;;9.77;;
12332;SDS011;6232;48.094;11.288;2023-06-04T04:38:19;11.10;;;8.53;;
12332;SDS011;6232;48.094;11.288;2023-06-04T04:41:06;11.30;;;8.50;;
12332;SDS011;6232;48.094;11.288;2023-06-04T04:43:52;9.07;;;8.17;;
12332;SDS011;6232;48.094;11.288;2023-06-04T04:46:38;12.07;;;8.37;;
12332;SDS011;6232;48.094;11.288;2023-06-04T04:49:23;11.73;;;7.47;;
12332;SDS011;6232;48.094;11.288;2023-06-04T04:52:09;12.43;;;7.70;;
12332;SDS011;6232;48.094;11.288;2023-06-04T04:54:55;10.20;;;8.13;;
12332;SDS011;6232;48.094;11.288;2023-06-04T04:57:42;12.67;;;8.70;;
12332;SDS011;6232;48.094;11.288;2023-06-04T05:00:28;10.67;;;7.70;;
12332;SDS011;6232;48.094;11.288;2023-06-04T05:03:14;9.40;;;7.80;;
12332;SDS011;6232;48.094;11.288;2023-06-04T05:05:59;13.03;;;8.27;;
12332;SDS011;6232;48.094;11.288;2023-06-04T05:08:45;8.03;;;7.23;;
12332;SDS011;6232;48.094;11.288;2023-06-04T05:11:31;11.00;;;7.47;;
12332;SDS011;6232;48.094;11.288;2023-06-04T05:14:16;10.50;;;8.63;;
12332;SDS011;6232;48.094;11.288;2023-06-04T05:17:02;8.50;;;7.60;;
12332;SDS011;6232;48.094;11.288;2023-06-04T05:19:51;9.97;;;8.00;;
12332;SDS011;6232;48.094;11.288;2023-06-04T05:22:38;6.70;;;5.97;;
12332;SDS011;6232;48.094;11.288;2023-06-04T05:25:24;11.03;;;7.30;;
12332;SDS011;6232;48.094;11.288;2023-06-04T05:28:09;10.50;;;6.77;;
12332;SDS011;6232;48.094;11.288;2023-06-04T05:30:55;11.07;;;6.47;;
12332;SDS011;6232;48.094;11.288;2023-06-04T05:33:44;7.30;;;6.57;;
12332;SDS011;6232;48.094;11.288;2023-06-04T05:36:30;7.17;;;6.00;;
12332;SDS011;6232;48.094;11.288;2023-06-04T05:39:15;6.67;;;5.93;;
12332;SDS011;6232;48.094;11.288;2023-06-04T05:42:01;6.33;;;5.73;;
12332;SDS011;6232;48.094;11.288;2023-06-04T05:44:47;6.17;;;5.10;;
12332;SDS011;6232;48.094;11.288;2023-06-04T05:47:33;9.20;;;5.13;;
12332;SDS011;6232;48.094;11.288;2023-06-04T05:50:19;11.53;;;5.57;;
12332;SDS011;6232;48.094;11.288;2023-06-04T05:53:04;6.00;;;5.33;;
12332;SDS011;6232;48.094;11.288;2023-06-04T05:55:50;9.50;;;5.17;;
12332;SDS011;6232;48.094;11.288;2023-06-04T05:58:36;6.07;;;5.33;;
12332;SDS011;6232;48.094;11.288;2023-06-04T06:01:22;5.87;;;5.03;;
12332;SDS011;6232;48.094;11.288;2023-06-04T06:04:07;8.53;;;5.30;;
12332;SDS011;6232;48.094;11.288;2023-06-04T06:06:53;5.70;;;4.97;;
12332;SDS011;6232;48.094;11.288;2023-06-04T06:09:38;6.47;;;4.53;;
12332;SDS011;6232;48.094;11.288;2023-06-04T06:12:24;11.87;;;5.37;;
12332;SDS011;6232;48.094;11.288;2023-06-04T06:15:09;10.37;;;5.67;;
12332;SDS011;6232;48.094;11.288;2023-06-04T06:17:56;5.90;;;4.90;;
12332;SDS011;6232;48.094;11.288;2023-06-04T06:20:41;6.13;;;5.47;;
12332;SDS011;6232;48.094;11.288;2023-06-04T06:23:27;6.10;;;5.50;;
12332;SDS011;6232;48.094;11.288;2023-06-04T06:26:12;8.77;;;6.53;;
12332;SDS011;6232;48.094;11.288;2023-06-04T06:28:59;8.83;;;5.07;;
12332;SDS011;6232;48.094;11.288;2023-06-04T06:31:44;7.00;;;5.00;;
12332;SDS011;6232;48.094;11.288;2023-06-04T06:34:30;5.13;;;4.63;;
12332;SDS011;6232;48.094;11.288;2023-06-04T06:37:15;6.60;;;5.10;;
12332;SDS011;6232;48.094;11.288;2023-06-04T06:40:01;6.43;;;4.50;;
12332;SDS011;6232;48.094;11.288;2023-06-04T06:42:49;9.43;;;5.67;;
12332;SDS011;6232;48.094;11.288;2023-06-04T06:45:36;8.07;;;5.30;;
12332;SDS011;6232;48.094;11.288;2023-06-04T06:48:23;8.00;;;5.17;;
12332;SDS011;6232;48.094;11.288;2023-06-04T06:51:08;7.60;;;5.70;;
12332;SDS011;6232;48.094;11.288;2023-06-04T06:53:54;7.17;;;4.97;;
12332;SDS011;6232;48.094;11.288;2023-06-04T06:56:39;5.40;;;4.43;;
12332;SDS011;6232;48.094;11.288;2023-06-04T06:59:25;5.70;;;5.13;;
12332;SDS011;6232;48.094;11.288;2023-06-04T07:02:11;6.80;;;5.70;;
12332;SDS011;6232;48.094;11.288;2023-06-04T07:04:56;6.27;;;5.07;;
12332;SDS011;6232;48.094;11.288;2023-06-04T07:07:42;5.50;;;4.50;;
12332;SDS011;6232;48.094;11.288;2023-06-04T07:10:29;11.03;;;5.43;;
12332;SDS011;6232;48.094;11.288;2023-06-04T07:13:15;6.37;;;4.97;;
12332;SDS011;6232;48.094;11.288;2023-06-04T07:16:01;11.10;;;5.77;;
12332;SDS011;6232;48.094;11.288;2023-06-04T07:18:47;5.73;;;4.87;;
12332;SDS011;6232;48.094;11.288;2023-06-04T07:21:33;6.70;;;4.77;;
12332;SDS011;6232;48.094;11.288;2023-06-04T07:24:18;9.67;;;6.20;;
12332;SDS011;6232;48.094;11.288;2023-06-04T07:27:14;6.10;;;4.47;;
12332;SDS011;6232;48.094;11.288;2023-06-04T07:30:00;7.07;;;4.60;;
12332;SDS011;6232;48.094;11.288;2023-06-04T07:32:46;5.73;;;5.00;;
12332;SDS011;6232;48.094;11.288;2023-06-04T07:35:32;6.03;;;4.10;;
12332;SDS011;6232;48.094;11.288;2023-06-04T07:38:18;5.80;;;4.00;;
12332;SDS011;6232;48.094;11.288;2023-06-04T07:41:03;9.93;;;4.20;;
12332;SDS011;6232;48.094;11.288;2023-06-04T07:43:49;8.83;;;5.27;;
12332;SDS011;6232;48.094;11.288;2023-06-04T07:46:35;5.10;;;4.07;;
12332;SDS011;6232;48.094;11.288;2023-06-04T07:49:20;5.57;;;4.93;;
12332;SDS011;6232;48.094;11.288;2023-06-04T07:52:06;25.60;;;7.60;;
12332;SDS011;6232;48.094;11.288;2023-06-04T07:54:52;4.90;;;3.90;;
12332;SDS011;6232;48.094;11.288;2023-06-04T07:57:37;7.00;;;3.97;;
12332;SDS011;6232;48.094;11.288;2023-06-04T08:00:23;4.47;;;3.70;;
12332;SDS011;6232;48.094;11.288;2023-06-04T08:03:09;4.07;;;3.67;;
12332;SDS011;6232;48.094;11.288;2023-06-04T08:05:55;5.40;;;3.93;;
12332;SDS011;6232;48.094;11.288;2023-06-04T08:08:42;7.50;;;3.90;;
12332;SDS011;6232;48.094;11.288;2023-06-04T08:11:27;6.57;;;4.33;;
12332;SDS011;6232;48.094;11.288;2023-06-04T08:14:13;4.53;;;3.50;;
12332;SDS011;6232;48.094;11.288;2023-06-04T08:16:59;5.65;;;3.60;;
12332;SDS011;6232;48.094;11.288;2023-06-04T08:19:45;5.57;;;3.90;;
12332;SDS011;6232;48.094;11.288;2023-06-04T08:22:30;7.10;;;3.70;;
12332;SDS011;6232;48.094;11.288;2023-06-04T08:25:16;9.17;;;4.07;;
12332;SDS011;6232;48.094;11.288;2023-06-04T08:28:01;4.27;;;3.60;;
12332;SDS011;6232;48.094;11.288;2023-06-04T08:30:48;4.13;;;3.60;;
12332;SDS011;6232;48.094;11.288;2023-06-04T08:33:33;6.97;;;4.17;;
12332;SDS011;6232;48.094;11.288;2023-06-04T08:36:19;10.93;;;4.70;;
12332;SDS011;6232;48.094;11.288;2023-06-04T08:39:05;5.60;;;3.70;;
12332;SDS011;6232;48.094;11.288;2023-06-04T08:41:59;5.67;;;3.83;;
12332;SDS011;6232;48.094;11.288;2023-06-04T08:44:46;5.47;;;3.80;;
12332;SDS011;6232;48.094;11.288;2023-06-04T08:47:35;5.60;;;3.50;;
12332;SDS011;6232;48.094;11.288;2023-06-04T08:50:22;5.20;;;3.43;;
12332;SDS011;6232;48.094;11.288;2023-06-04T08:53:08;4.50;;;3.93;;
12332;SDS011;6232;48.094;11.288;2023-06-04T08:55:54;3.70;;;3.20;;
12332;SDS011;6232;48.094;11.288;2023-06-04T08:58:39;6.33;;;3.43;;
12332;SDS011;6232;48.094;11.288;2023-06-04T09:01:25;6.90;;;3.33;;
12332;SDS011;6232;48.094;11.288;2023-06-04T09:04:11;4.30;;;3.80;;
12332;SDS011;6232;48.094;11.288;2023-06-04T09:06:59;8.70;;;3.30;;
12332;SDS011;6232;48.094;11.288;2023-06-04T09:09:46;4.47;;;3.27;;
12332;SDS011;6232;48.094;11.288;2023-06-04T09:12:32;5.43;;;4.03;;
12332;SDS011;6232;48.094;11.288;2023-06-04T09:15:18;3.63;;;3.07;;
12332;SDS011;6232;48.094;11.288;2023-06-04T09:18:04;4.10;;;3.40;;
12332;SDS011;6232;48.094;11.288;2023-06-04T09:20:59;3.87;;;3.30;;
12332;SDS011;6232;48.094;11.288;2023-06-04T09:23:45;4.93;;;3.57;;
12332;SDS011;6232;48.094;11.288;2023-06-04T09:26:31;4.57;;;3.50;;
12332;SDS011;6232;48.094;11.288;2023-06-04T09:29:17;2.53;;;2.33;;
12332;SDS011;6232;48.094;11.288;2023-06-04T09:32:02;4.97;;;3.70;;
12332;SDS011;6232;48.094;11.288;2023-06-04T09:34:48;3.37;;;3.07;;
12332;SDS011;6232;48.094;11.288;2023-06-04T09:37:34;3.47;;;3.17;;
12332;SDS011;6232;48.094;11.288;2023-06-04T09:40:20;6.80;;;3.77;;
12332;SDS011;6232;48.094;11.288;2023-06-04T09:43:05;5.77;;;3.30;;
12332;SDS011;6232;48.094;11.288;2023-06-04T09:45:51;4.23;;;3.20;;
12332;SDS011;6232;48.094;11.288;2023-06-04T09:48:38;5.37;;;3.20;;
12332;SDS011;6232;48.094;11.288;2023-06-04T09:51:24;6.03;;;3.87;;
12332;SDS011;6232;48.094;11.288;2023-06-04T09:54:09;4.80;;;3.40;;
12332;SDS011;6232;48.094;11.288;2023-06-04T09:56:55;4.73;;;3.43;;
12332;SDS011;6232;48.094;11.288;2023-06-04T09:59:41;10.53;;;3.50;;
12332;SDS011;6232;48.094;11.288;2023-06-04T10:02:27;3.60;;;3.30;;
12332;SDS011;6232;48.094;11.288;2023-06-04T10:05:14;4.77;;;3.30;;
12332;SDS011;6232;48.094;11.288;2023-06-04T10:08:02;3.70;;;3.20;;
12332;SDS011;6232;48.094;11.288;2023-06-04T10:10:54;4.77;;;3.87;;
12332;SDS011;6232;48.094;11.288;2023-06-04T10:13:45;7.47;;;4.23;;
12332;SDS011;6232;48.094;11.288;2023-06-04T10:16:33;4.17;;;3.77;;
12332;SDS011;6232;48.094;11.288;2023-06-04T10:19:19;4.50;;;3.30;;
12332;SDS011;6232;48.094;11.288;2023-06-04T10:22:05;5.40;;;3.80;;
12332;SDS011;6232;48.094;11.288;2023-06-04T10:24:50;8.90;;;3.50;;
12332;SDS011;6232;48.094;11.288;2023-06-04T10:27:36;7.70;;;3.17;;
12332;SDS011;6232;48.094;11.288;2023-06-04T10:30:22;5.43;;;3.73;;
12332;SDS011;6232;48.094;11.288;2023-06-04T10:33:07;3.90;;;3.50;;
12332;SDS011;6232;48.094;11.288;2023-06-04T10:35:54;3.67;;;3.38;;
12332;SDS011;6232;48.094;11.288;2023-06-04T10:38:47;4.13;;;3.47;;
12332;SDS011;6232;48.094;11.288;2023-06-04T10:41:33;5.38;;;3.67;;
12332;SDS011;6232;48.094;11.288;2023-06-04T10:44:20;5.93;;;3.10;;
12332;SDS011;6232;48.094;11.288;2023-06-04T10:47:06;4.63;;;3.00;;
12332;SDS011;6232;48.094;11.288;2023-06-04T10:49:52;4.80;;;3.30;;
12332;SDS011;6232;48.094;11.288;2023-06-04T10:52:39;4.40;;;3.10;;
12332;SDS011;6232;48.094;11.288;2023-06-04T10:55:42;3.17;;;2.78;;
12332;SDS011;6232;48.094;11.288;2023-06-04T10:58:31;3.40;;;3.10;;
12332;SDS011;6232;48.094;11.288;2023-06-04T11:01:24;6.95;;;4.93;;
12332;SDS011;6232;48.094;11.288;2023-06-04T11:04:20;5.50;;;3.20;;
12332;SDS011;6232;48.094;11.288;2023-06-04T11:07:07;3.30;;;3.00;;
12332;SDS011;6232;48.094;11.288;2023-06-04T11:09:55;5.35;;;3.20;;
12332;SDS011;6232;48.094;11.288;2023-06-04T11:12:50;3.65;;;2.83;;
12332;SDS011;6232;48.094;11.288;2023-06-04T11:15:45;5.18;;;3.40;;
12332;SDS011;6232;48.094;11.288;2023-06-04T11:18:31;4.28;;;3.08;;
12332;SDS011;6232;48.094;11.288;2023-06-04T11:21:17;5.50;;;3.10;;
12332;SDS011;6232;48.094;11.288;2023-06-04T11:24:03;4.78;;;3.30;;
12332;SDS011;6232;48.094;11.288;2023-06-04T11:26:48;5.45;;;3.25;;
12332;SDS011;6232;48.094;11.288;2023-06-04T11:29:34;5.03;;;3.10;;
12332;SDS011;6232;48.094;11.288;2023-06-04T11:32:23;4.78;;;2.97;;
12332;SDS011;6232;48.094;11.288;2023-06-04T11:35:09;5.07;;;3.25;;
12332;SDS011;6232;48.094;11.288;2023-06-04T11:37:57;8.40;;;3.15;;
12332;SDS011;6232;48.094;11.288;2023-06-04T11:40:43;5.95;;;2.97;;
12332;SDS011;6232;48.094;11.288;2023-06-04T11:43:30;7.68;;;3.50;;
12332;SDS011;6232;48.094;11.288;2023-06-04T11:46:17;5.03;;;3.28;;
12332;SDS011;6232;48.094;11.288;2023-06-04T11:49:03;3.15;;;2.85;;
12332;SDS011;6232;48.094;11.288;2023-06-04T11:51:51;4.28;;;2.67;;
12332;SDS011;6232;48.094;11.288;2023-06-04T11:54:37;5.20;;;2.80;;
12332;SDS011;6232;48.094;11.288;2023-06-04T11:57:23;4.20;;;3.17;;
12332;SDS011;6232;48.094;11.288;2023-06-04T12:00:09;3.78;;;2.88;;
12332;SDS011;6232;48.094;11.288;2023-06-04T12:02:55;3.38;;;2.97;;
12332;SDS011;6232;48.094;11.288;2023-06-04T12:05:41;4.63;;;3.72;;
12332;SDS011;6232;48.094;11.288;2023-06-04T12:08:26;2.88;;;2.67;;
12332;SDS011;6232;48.094;11.288;2023-06-04T12:11:24;3.42;;;2.75;;
12332;SDS011;6232;48.094;11.288;2023-06-04T12:14:14;4.85;;;2.80;;
12332;SDS011;6232;48.094;11.288;2023-06-04T12:17:05;8.15;;;3.20;;
12332;SDS011;6232;48.094;11.288;2023-06-04T12:19:51;6.07;;;2.80;;
12332;SDS011;6232;48.094;11.288;2023-06-04T12:22:44;3.25;;;2.90;;
12332;SDS011;6232;48.094;11.288;2023-06-04T12:25:30;4.80;;;2.75;;
12332;SDS011;6232;48.094;11.288;2023-06-04T12:28:19;3.45;;;3.15;;
12332;SDS011;6232;48.094;11.288;2023-06-04T12:31:04;4.05;;;2.83;;
12332;SDS011;6232;48.094;11.288;2023-06-04T12:34:01;4.78;;;3.15;;
12332;SDS011;6232;48.094;11.288;2023-06-04T12:36:46;4.85;;;3.25;;
12332;SDS011;6232;48.094;11.288;2023-06-04T12:39:32;3.58;;;3.28;;
12332;SDS011;6232;48.094;11.288;2023-06-04T12:42:18;6.72;;;3.08;;
12332;SDS011;6232;48.094;11.288;2023-06-04T12:45:05;5.18;;;3.17;;
12332;SDS011;6232;48.094;11.288;2023-06-04T12:47:50;6.28;;;3.72;;
12332;SDS011;6232;48.094;11.288;2023-06-04T12:50:36;5.07;;;3.80;;
12332;SDS011;6232;48.094;11.288;2023-06-04T12:53:22;4.22;;;3.80;;
12332;SDS011;6232;48.094;11.288;2023-06-04T12:56:07;3.53;;;3.20;;
12332;SDS011;6232;48.094;11.288;2023-06-04T12:58:53;4.53;;;3.10;;
12332;SDS011;6232;48.094;11.288;2023-06-04T13:01:38;6.55;;;3.45;;
12332;SDS011;6232;48.094;11.288;2023-06-04T13:04:24;5.35;;;4.82;;
12332;SDS011;6232;48.094;11.288;2023-06-04T13:07:10;5.05;;;3.33;;
12332;SDS011;6232;48.094;11.288;2023-06-04T13:09:55;8.63;;;3.03;;
12332;SDS011;6232;48.094;11.288;2023-06-04T13:12:41;13.73;;;3.53;;
12332;SDS011;6232;48.094;11.288;2023-06-04T13:15:26;5.05;;;3.42;;
12332;SDS011;6232;48.094;11.288;2023-06-04T13:18:13;3.40;;;3.00;;
12332;SDS011;6232;48.094;11.288;2023-06-04T13:20:58;5.18;;;3.22;;
12332;SDS011;6232;48.094;11.288;2023-06-04T13:23:44;17.70;;;2.72;;
12332;SDS011;6232;48.094;11.288;2023-06-04T13:26:29;6.30;;;3.10;;
12332;SDS011;6232;48.094;11.288;2023-06-04T13:29:15;3.28;;;2.80;;
12332;SDS011;6232;48.094;11.288;2023-06-04T13:32:01;4.18;;;3.70;;
12332;SDS011;6232;48.094;11.288;2023-06-04T13:34:47;3.55;;;3.10;;
12332;SDS011;6232;48.094;11.288;2023-06-04T13:37:33;4.50;;;3.10;;
12332;SDS011;6232;48.094;11.288;2023-06-04T13:40:18;4.28;;;3.35;;
12332;SDS011;6232;48.094;11.288;2023-06-04T13:43:07;3.85;;;2.97;;
12332;SDS011;6232;48.094;11.288;2023-06-04T13:45:54;8.43;;;4.28;;
12332;SDS011;6232;48.094;11.288;2023-06-04T13:48:39;6.40;;;3.15;;
12332;SDS011;6232;48.094;11.288;2023-06-04T13:51:25;3.80;;;3.38;;
12332;SDS011;6232;48.094;11.288;2023-06-04T13:54:10;10.23;;;3.45;;
12332;SDS011;6232;48.094;11.288;2023-06-04T13:56:56;5.43;;;4.93;;
12332;SDS011;6232;48.094;11.288;2023-06-04T13:59:41;4.40;;;4.00;;
12332;SDS011;6232;48.094;11.288;2023-06-04T14:02:27;3.53;;;3.20;;
12332;SDS011;6232;48.094;11.288;2023-06-04T14:05:12;4.03;;;3.58;;
12332;SDS011;6232;48.094;11.288;2023-06-04T14:07:58;3.22;;;3.00;;
12332;SDS011;6232;48.094;11.288;2023-06-04T14:10:43;4.20;;;3.45;;
12332;SDS011;6232;48.094;11.288;2023-06-04T14:13:29;8.45;;;3.15;;
12332;SDS011;6232;48.094;11.288;2023-06-04T14:16:15;3.50;;;3.20;;
12332;SDS011;6232;48.094;11.288;2023-06-04T14:19:00;5.80;;;3.20;;
12332;SDS011;6232;48.094;11.288;2023-06-04T14:21:46;4.20;;;3.20;;
12332;SDS011;6232;48.094;11.288;2023-06-04T14:24:32;4.50;;;4.10;;
12332;SDS011;6232;48.094;11.288;2023-06-04T14:27:17;4.40;;;3.53;;
12332;SDS011;6232;48.094;11.288;2023-06-04T14:30:03;4.33;;;3.50;;
12332;SDS011;6232;48.094;11.288;2023-06-04T14:32:49;6.53;;;3.67;;
12332;SDS011;6232;48.094;11.288;2023-06-04T14:35:35;5.07;;;3.60;;
12332;SDS011;6232;48.094;11.288;2023-06-04T14:38:21;7.03;;;4.07;;
12332;SDS011;6232;48.094;11.288;2023-06-04T14:41:06;4.70;;;3.80;;
12332;SDS011;6232;48.094;11.288;2023-06-04T14:43:52;4.00;;;3.43;;
12332;SDS011;6232;48.094;11.288;2023-06-04T14:46:38;6.30;;;4.03;;
12332;SDS011;6232;48.094;11.288;2023-06-04T14:49:24;4.10;;;3.37;;
12332;SDS011;6232;48.094;11.288;2023-06-04T14:52:10;6.90;;;3.67;;
12332;SDS011;6232;48.094;11.288;2023-06-04T14:54:55;5.00;;;3.70;;
12332;SDS011;6232;48.094;11.288;2023-06-04T14:57:41;5.93;;;3.63;;
12332;SDS011;6232;48.094;11.288;2023-06-04T15:00:27;4.47;;;3.13;;
12332;SDS011;6232;48.094;11.288;2023-06-04T15:03:12;7.70;;;4.00;;
12332;SDS011;6232;48.094;11.288;2023-06-04T15:05:58;4.40;;;3.27;;
12332;SDS011;6232;48.094;11.288;2023-06-04T15:08:43;6.53;;;3.40;;
12332;SDS011;6232;48.094;11.288;2023-06-04T15:11:29;4.60;;;3.37;;
12332;SDS011;6232;48.094;11.288;2023-06-04T15:14:15;8.93;;;3.40;;
12332;SDS011;6232;48.094;11.288;2023-06-04T15:17:00;7.23;;;4.63;;
12332;SDS011;6232;48.094;11.288;2023-06-04T15:19:46;7.07;;;5.60;;
12332;SDS011;6232;48.094;11.288;2023-06-04T15:22:31;4.97;;;3.53;;
12332;SDS011;6232;48.094;11.288;2023-06-04T15:25:17;11.57;;;3.70;;
12332;SDS011;6232;48.094;11.288;2023-06-04T15:28:03;3.87;;;3.47;;
12332;SDS011;6232;48.094;11.288;2023-06-04T15:30:48;8.67;;;4.17;;
12332;SDS011;6232;48.094;11.288;2023-06-04T15:33:34;4.60;;;3.60;;
12332;SDS011;6232;48.094;11.288;2023-06-04T15:36:19;6.90;;;3.70;;
12332;SDS011;6232;48.094;11.288;2023-06-04T15:39:05;5.73;;;3.70;;
12332;SDS011;6232;48.094;11.288;2023-06-04T15:41:50;5.90;;;3.33;;
12332;SDS011;6232;48.094;11.288;2023-06-04T15:44:36;5.53;;;3.43;;
12332;SDS011;6232;48.094;11.288;2023-06-04T15:47:21;11.40;;;3.93;;
12332;SDS011;6232;48.094;11.288;2023-06-04T15:50:07;5.50;;;3.57;;
12332;SDS011;6232;48.094;11.288;2023-06-04T15:52:53;7.53;;;4.33;;
12332;SDS011;6232;48.094;11.288;2023-06-04T15:55:38;4.77;;;3.90;;
12332;SDS011;6232;48.094;11.288;2023-06-04T15:58:12;5.27;;;3.80;;
12332;SDS011;6232;48.094;11.288;2023-06-04T16:00:38;3.87;;;2.87;;
12332;SDS011;6232;48.094;11.288;2023-06-04T16:03:03;5.33;;;4.00;;
12332;SDS011;6232;48.094;11.288;2023-06-04T16:05:28;7.20;;;3.80;;
12332;SDS011;6232;48.094;11.288;2023-06-04T16:07:54;9.10;;;3.77;;
12332;SDS011;6232;48.094;11.288;2023-06-04T16:10:19;6.20;;;3.53;;
12332;SDS011;6232;48.094;11.288;2023-06-04T16:12:45;3.63;;;3.33;;
12332;SDS011;6232;48.094;11.288;2023-06-04T16:15:10;4.10;;;3.60;;
12332;SDS011;6232;48.094;11.288;2023-06-04T16:17:35;4.33;;;3.80;;
12332;SDS011;6232;48.094;11.288;2023-06-04T16:20:01;5.60;;;3.57;;
12332;SDS011;6232;48.094;11.288;2023-06-04T16:22:28;3.57;;;3.27;;
12332;SDS011;6232;48.094;11.288;2023-06-04T16:24:53;5.43;;;3.53;;
12332;SDS011;6232;48.094;11.288;2023-06-04T16:27:18;5.60;;;4.13;;
12332;SDS011;6232;48.094;11.288;2023-06-04T16:29:44;4.60;;;3.37;;
12332;SDS011;6232;48.094;11.288;2023-06-04T16:32:09;8.10;;;3.10;;
12332;SDS011;6232;48.094;11.288;2023-06-04T16:34:53;6.60;;;4.03;;